createdAt,value
2023-02-25T00:00:01.377Z,89.05
2023-02-25T00:00:18.122Z,89.05
2023-02-25T00:01:21.056Z,89.05
2023-02-25T00:02:38.460Z,89.09
2023-02-25T00:04:14.267Z,89.01
2023-02-25T00:05:17.376Z,89.01
2023-02-25T00:06:24.240Z,89.05
2023-02-25T00:07:59.680Z,88.99
2023-02-25T00:09:03.005Z,89.03
2023-02-25T00:10:06.002Z,88.91
2023-02-25T00:11:41.246Z,89.01
2023-02-25T00:12:44.203Z,88.55
2023-02-25T00:14:04.377Z,88.56
2023-02-25T00:15:38.974Z,88.53
2023-02-25T00:16:42.130Z,88.42
2023-02-25T00:17:45.434Z,88.32
2023-02-25T00:19:20.365Z,88.44
2023-02-25T00:20:23.369Z,88.38
2023-02-25T00:21:26.318Z,88.22
2023-02-25T00:23:01.291Z,88.17
2023-02-25T00:24:21.067Z,88.30
2023-02-25T00:25:24.098Z,88.23
2023-02-25T00:26:59.089Z,88.31
2023-02-25T00:28:02.101Z,88.32
2023-02-25T00:29:05.021Z,88.30
2023-02-25T00:30:40.241Z,88.39
2023-02-25T00:31:44.506Z,88.43
2023-02-25T00:32:48.705Z,88.33
2023-02-25T00:34:23.960Z,88.37
2023-02-25T00:35:26.857Z,88.38
2023-02-25T00:36:30.324Z,88.43
2023-02-25T00:38:20.848Z,88.41
2023-02-25T00:39:24.020Z,88.51
2023-02-25T00:40:27.700Z,88.47
2023-02-25T00:42:02.886Z,88.43
2023-02-25T00:43:05.963Z,88.36
2023-02-25T00:44:08.876Z,88.42
2023-02-25T00:45:43.904Z,88.48
2023-02-25T00:46:47.180Z,88.60
2023-02-25T00:47:50.554Z,88.67
2023-02-25T00:49:37.907Z,88.64
2023-02-25T00:50:40.831Z,88.67
2023-02-25T00:51:43.706Z,89.00
2023-02-25T00:53:18.798Z,89.07
2023-02-25T00:54:21.946Z,89.28
2023-02-25T00:55:24.904Z,89.36
2023-02-25T00:56:59.783Z,89.51
2023-02-25T00:58:03.090Z,89.83
2023-02-25T00:59:06.050Z,89.84
2023-02-25T01:00:18.044Z,89.89
2023-02-25T01:01:37.413Z,89.91
2023-02-25T01:02:40.965Z,89.94
2023-02-25T01:04:16.727Z,90.24
2023-02-25T01:05:20.584Z,90.40
2023-02-25T01:06:24.293Z,90.50
2023-02-25T01:07:59.898Z,90.42
2023-02-25T01:09:02.753Z,90.58
2023-02-25T01:10:05.996Z,90.60
2023-02-25T01:11:41.304Z,90.61
2023-02-25T01:12:44.210Z,90.46
2023-02-25T01:13:47.480Z,90.58
2023-02-25T01:15:22.936Z,90.60
2023-02-25T01:16:27.237Z,90.67
2023-02-25T01:17:30.795Z,90.71
2023-02-25T01:19:05.417Z,90.53
2023-02-25T01:20:08.200Z,90.40
2023-02-25T01:21:10.969Z,90.35
2023-02-25T01:22:45.912Z,90.32
2023-02-25T01:23:48.816Z,90.15
2023-02-25T01:24:51.614Z,90.01
2023-02-25T01:26:26.988Z,89.93
2023-02-25T01:27:29.912Z,89.83
2023-02-25T01:28:33.187Z,89.49
2023-02-25T01:30:07.985Z,89.22
2023-02-25T01:31:11.237Z,88.89
2023-02-25T01:32:15.551Z,88.79
2023-02-25T01:33:51.713Z,88.72
2023-02-25T01:34:54.771Z,88.33
2023-02-25T01:35:57.716Z,88.31
2023-02-25T01:37:32.905Z,88.10
2023-02-25T01:38:35.891Z,88.00
2023-02-25T01:39:38.775Z,87.93
2023-02-25T01:41:13.630Z,87.99
2023-02-25T01:42:16.656Z,87.90
2023-02-25T01:43:19.559Z,87.75
2023-02-25T01:44:54.537Z,87.63
2023-02-25T01:45:57.592Z,87.48
2023-02-25T01:47:01.204Z,87.30
2023-02-25T01:48:36.359Z,87.16
2023-02-25T01:49:39.434Z,86.91
2023-02-25T01:50:42.493Z,86.86
2023-02-25T01:52:17.262Z,86.69
2023-02-25T01:53:20.064Z,86.59
2023-02-25T01:54:22.989Z,86.52
2023-02-25T01:55:57.620Z,86.59
2023-02-25T01:57:01.073Z,86.61
2023-02-25T01:58:04.242Z,86.40
2023-02-25T01:59:39.092Z,86.16
2023-02-25T02:00:17.338Z,85.97
2023-02-25T02:01:20.677Z,85.78
2023-02-25T02:02:23.871Z,85.93
2023-02-25T02:03:59.352Z,85.56
2023-02-25T02:05:02.515Z,85.50
2023-02-25T02:06:05.460Z,85.38
2023-02-25T02:07:40.875Z,85.12
2023-02-25T02:08:43.763Z,85.09
2023-02-25T02:09:46.728Z,84.75
2023-02-25T02:11:21.702Z,84.65
2023-02-25T02:12:24.517Z,84.67
2023-02-25T02:13:27.467Z,84.53
2023-02-25T02:15:02.161Z,84.57
2023-02-25T02:16:05.083Z,84.60
2023-02-25T02:17:08.851Z,84.68
2023-02-25T02:18:46.403Z,84.63
2023-02-25T02:19:49.507Z,84.37
2023-02-25T02:20:52.567Z,84.08
2023-02-25T02:22:27.342Z,84.17
2023-02-25T02:23:30.542Z,83.85
2023-02-25T02:24:33.516Z,83.79
2023-02-25T02:26:08.382Z,84.07
2023-02-25T02:27:11.425Z,84.12
2023-02-25T02:28:14.383Z,84.12
2023-02-25T02:29:49.202Z,84.04
2023-02-25T02:30:52.346Z,84.08
2023-02-25T02:31:56.003Z,84.09
2023-02-25T02:33:31.934Z,84.36
2023-02-25T02:34:35.102Z,84.30
2023-02-25T02:35:38.228Z,84.50
2023-02-25T02:37:13.560Z,84.53
2023-02-25T02:38:16.613Z,84.56
2023-02-25T02:39:19.646Z,84.67
2023-02-25T02:40:54.744Z,84.90
2023-02-25T02:41:57.758Z,84.91
2023-02-25T02:43:00.657Z,85.44
2023-02-25T02:44:35.525Z,85.97
2023-02-25T02:45:38.604Z,86.70
2023-02-25T02:46:41.726Z,87.39
2023-02-25T02:48:16.590Z,87.77
2023-02-25T02:49:19.645Z,88.13
2023-02-25T02:50:22.591Z,88.38
2023-02-25T02:51:57.592Z,88.84
2023-02-25T02:53:00.515Z,88.74
2023-02-25T02:54:03.675Z,88.83
2023-02-25T02:55:39.039Z,88.49
2023-02-25T02:56:42.006Z,88.38
2023-02-25T02:57:45.155Z,87.72
2023-02-25T02:59:20.158Z,87.64
2023-02-25T03:00:18.231Z,87.91
2023-02-25T03:01:21.370Z,87.77
2023-02-25T03:02:24.359Z,87.70
2023-02-25T03:03:59.240Z,87.48
2023-02-25T03:05:02.315Z,87.28
2023-02-25T03:06:05.299Z,87.30
2023-02-25T03:07:41.211Z,87.46
2023-02-25T03:08:44.124Z,87.54
2023-02-25T03:09:47.230Z,87.33
2023-02-25T03:11:22.380Z,87.57
2023-02-25T03:12:25.434Z,87.70
2023-02-25T03:13:28.339Z,87.60
2023-02-25T03:15:02.990Z,87.51
2023-02-25T03:16:05.742Z,87.61
2023-02-25T03:17:09.482Z,87.55
2023-02-25T03:18:44.981Z,87.46
2023-02-25T03:19:47.844Z,87.55
2023-02-25T03:20:50.816Z,87.24
2023-02-25T03:22:25.514Z,87.22
2023-02-25T03:23:28.669Z,87.14
2023-02-25T03:24:31.808Z,87.30
2023-02-25T03:26:06.782Z,87.17
2023-02-25T03:27:10.227Z,87.05
2023-02-25T03:28:13.411Z,86.96
2023-02-25T03:29:48.368Z,86.91
2023-02-25T03:30:51.512Z,87.06
2023-02-25T03:31:54.959Z,87.01
2023-02-25T03:33:31.096Z,86.76
2023-02-25T03:34:34.228Z,86.66
2023-02-25T03:35:37.104Z,86.62
2023-02-25T03:37:12.242Z,86.37
2023-02-25T03:38:15.125Z,86.01
2023-02-25T03:39:18.049Z,86.00
2023-02-25T03:40:53.114Z,85.77
2023-02-25T03:41:56.162Z,85.60
2023-02-25T03:42:59.202Z,85.29
2023-02-25T03:44:37.629Z,85.51
2023-02-25T03:45:40.797Z,85.34
2023-02-25T03:46:44.143Z,85.27
2023-02-25T03:48:18.967Z,84.99
2023-02-25T03:49:22.057Z,84.71
2023-02-25T03:50:25.113Z,84.99
2023-02-25T03:51:59.770Z,84.73
2023-02-25T03:53:02.699Z,84.53
2023-02-25T03:54:05.496Z,84.39
2023-02-25T03:55:40.293Z,84.42
2023-02-25T03:56:43.313Z,83.92
2023-02-25T03:57:46.241Z,83.87
2023-02-25T03:59:21.230Z,83.76
2023-02-25T04:00:17.668Z,83.90
2023-02-25T04:01:23.041Z,83.94
2023-02-25T04:02:26.295Z,83.79
2023-02-25T04:04:01.744Z,84.06
2023-02-25T04:05:05.172Z,84.33
2023-02-25T04:06:08.369Z,84.07
2023-02-25T04:07:43.592Z,84.19
2023-02-25T04:08:46.599Z,83.98
2023-02-25T04:09:49.533Z,84.01
2023-02-25T04:11:24.416Z,84.18
2023-02-25T04:12:27.430Z,84.37
2023-02-25T04:13:30.480Z,84.30
2023-02-25T04:15:05.581Z,84.39
2023-02-25T04:16:09.121Z,84.65
2023-02-25T04:17:12.548Z,84.15
2023-02-25T04:18:47.607Z,84.52
2023-02-25T04:19:50.651Z,84.53
2023-02-25T04:20:53.698Z,84.44
2023-02-25T04:22:28.583Z,84.79
2023-02-25T04:23:31.852Z,84.71
2023-02-25T04:24:34.748Z,84.77
2023-02-25T04:26:10.017Z,84.84
2023-02-25T04:27:13.355Z,85.17
2023-02-25T04:28:16.390Z,84.87
2023-02-25T04:29:51.830Z,85.04
2023-02-25T04:30:55.223Z,85.10
2023-02-25T04:31:59.486Z,85.09
2023-02-25T04:33:35.832Z,84.91
2023-02-25T04:34:38.827Z,85.02
2023-02-25T04:35:41.945Z,85.12
2023-02-25T04:37:17.558Z,85.05
2023-02-25T04:38:20.595Z,85.09
2023-02-25T04:39:23.555Z,85.04
2023-02-25T04:40:58.305Z,85.00
2023-02-25T04:42:01.382Z,85.17
2023-02-25T04:43:04.405Z,85.28
2023-02-25T04:44:39.428Z,85.23
2023-02-25T04:45:42.342Z,85.20
2023-02-25T04:46:45.532Z,85.25
2023-02-25T04:48:20.481Z,85.09
2023-02-25T04:49:23.333Z,85.12
2023-02-25T04:50:26.472Z,85.18
2023-02-25T04:52:01.419Z,84.90
2023-02-25T04:53:04.311Z,84.97
2023-02-25T04:54:07.187Z,84.95
2023-02-25T04:55:41.967Z,84.84
2023-02-25T04:56:44.976Z,84.85
2023-02-25T04:57:48.072Z,84.68
2023-02-25T04:59:23.065Z,84.70
2023-02-25T05:00:18.342Z,84.70
2023-02-25T05:01:21.365Z,84.58
2023-02-25T05:02:24.670Z,84.77
2023-02-25T05:03:59.544Z,84.80
2023-02-25T05:05:48.341Z,84.71
2023-02-25T05:06:51.844Z,84.63
2023-02-25T05:07:55.183Z,84.68
2023-02-25T05:09:30.394Z,84.94
2023-02-25T05:10:34.052Z,84.99
2023-02-25T05:11:37.232Z,84.86
2023-02-25T05:13:12.904Z,84.99
2023-02-25T05:14:16.358Z,85.02
2023-02-25T05:15:19.869Z,85.11
2023-02-25T05:16:55.745Z,85.09
2023-02-25T05:17:59.264Z,85.17
2023-02-25T05:19:02.536Z,85.19
2023-02-25T05:20:38.305Z,85.35
2023-02-25T05:21:42.093Z,85.62
2023-02-25T05:22:45.283Z,85.50
2023-02-25T05:24:20.644Z,85.66
2023-02-25T05:25:23.640Z,85.41
2023-02-25T05:26:27.640Z,85.36
2023-02-25T05:28:03.235Z,85.50
2023-02-25T05:29:06.474Z,85.49
2023-02-25T05:30:09.926Z,85.61
2023-02-25T05:31:46.493Z,85.56
2023-02-25T05:32:51.481Z,85.60
2023-02-25T05:33:55.195Z,85.56
2023-02-25T05:35:30.620Z,85.68
2023-02-25T05:36:34.902Z,85.92
2023-02-25T05:37:38.181Z,85.81
2023-02-25T05:39:13.698Z,85.84
2023-02-25T05:40:17.074Z,85.78
2023-02-25T05:41:20.203Z,85.55
2023-02-25T05:42:55.679Z,85.91
2023-02-25T05:43:58.878Z,86.09
2023-02-25T05:45:02.234Z,86.19
2023-02-25T05:46:37.980Z,86.09
2023-02-25T05:47:41.925Z,86.10
2023-02-25T05:48:45.465Z,86.15
2023-02-25T05:50:20.775Z,86.35
2023-02-25T05:51:24.486Z,86.27
2023-02-25T05:52:27.687Z,86.41
2023-02-25T05:54:03.306Z,86.30
2023-02-25T05:55:06.495Z,86.16
2023-02-25T05:56:09.842Z,86.19
2023-02-25T05:57:49.876Z,86.16
2023-02-25T05:58:53.167Z,86.19
2023-02-25T05:59:56.609Z,86.21
2023-02-25T06:00:18.051Z,86.21
2023-02-25T06:01:21.307Z,86.23
2023-02-25T06:02:25.028Z,86.14
2023-02-25T06:04:00.932Z,86.04
2023-02-25T06:05:04.062Z,86.01
2023-02-25T06:06:07.497Z,86.22
2023-02-25T06:07:44.057Z,86.16
2023-02-25T06:08:47.218Z,86.26
2023-02-25T06:09:51.039Z,86.20
2023-02-25T06:11:26.694Z,86.25
2023-02-25T06:12:30.094Z,86.28
2023-02-25T06:13:33.412Z,86.27
2023-02-25T06:15:08.965Z,86.32
2023-02-25T06:16:12.401Z,86.39
2023-02-25T06:17:16.813Z,86.60
2023-02-25T06:18:51.927Z,86.54
2023-02-25T06:19:55.314Z,86.65
2023-02-25T06:20:58.834Z,86.67
2023-02-25T06:22:34.055Z,86.55
2023-02-25T06:23:37.566Z,86.54
2023-02-25T06:24:40.868Z,86.57
2023-02-25T06:26:16.380Z,86.77
2023-02-25T06:27:20.196Z,86.70
2023-02-25T06:28:23.758Z,86.52
2023-02-25T06:30:00.436Z,86.65
2023-02-25T06:31:03.750Z,86.68
2023-02-25T06:32:07.760Z,86.78
2023-02-25T06:33:44.318Z,86.68
2023-02-25T06:34:47.655Z,86.60
2023-02-25T06:35:50.899Z,86.58
2023-02-25T06:37:26.594Z,86.52
2023-02-25T06:38:30.092Z,86.55
2023-02-25T06:39:33.498Z,86.63
2023-02-25T06:41:08.886Z,86.72
2023-02-25T06:42:11.934Z,86.79
2023-02-25T06:43:15.308Z,86.76
2023-02-25T06:44:50.998Z,86.62
2023-02-25T06:45:54.440Z,86.64
2023-02-25T06:46:58.212Z,86.59
2023-02-25T06:48:33.454Z,86.50
2023-02-25T06:49:37.034Z,86.63
2023-02-25T06:50:43.229Z,86.66
2023-02-25T06:52:18.910Z,86.59
2023-02-25T06:53:22.503Z,86.64
2023-02-25T06:54:26.041Z,86.41
2023-02-25T06:56:01.537Z,86.40
2023-02-25T06:57:05.305Z,86.74
2023-02-25T06:58:08.605Z,86.55
2023-02-25T06:59:45.925Z,86.51
2023-02-25T07:00:17.816Z,86.62
2023-02-25T07:01:21.445Z,86.75
2023-02-25T07:02:25.051Z,86.67
2023-02-25T07:04:00.277Z,86.88
2023-02-25T07:05:03.830Z,86.84
2023-02-25T07:06:06.792Z,86.78
2023-02-25T07:07:42.601Z,86.87
2023-02-25T07:08:46.014Z,86.97
2023-02-25T07:09:49.458Z,87.38
2023-02-25T07:11:25.195Z,87.29
2023-02-25T07:12:28.640Z,87.15
2023-02-25T07:13:32.226Z,87.27
2023-02-25T07:15:07.860Z,87.23
2023-02-25T07:16:11.459Z,87.22
2023-02-25T07:17:15.608Z,87.25
2023-02-25T07:18:51.297Z,87.33
2023-02-25T07:19:54.637Z,87.40
2023-02-25T07:20:57.747Z,87.41
2023-02-25T07:22:33.089Z,87.16
2023-02-25T07:23:36.582Z,87.45
2023-02-25T07:24:39.971Z,87.54
2023-02-25T07:26:16.136Z,87.55
2023-02-25T07:27:20.270Z,87.52
2023-02-25T07:28:25.693Z,87.40
2023-02-25T07:30:01.303Z,87.53
2023-02-25T07:31:04.818Z,87.50
2023-02-25T07:32:10.683Z,87.66
2023-02-25T07:33:49.171Z,87.91
2023-02-25T07:34:52.605Z,87.96
2023-02-25T07:35:56.186Z,87.87
2023-02-25T07:37:31.804Z,88.14
2023-02-25T07:38:35.446Z,88.23
2023-02-25T07:39:38.774Z,88.14
2023-02-25T07:41:17.314Z,87.94
2023-02-25T07:42:21.344Z,87.95
2023-02-25T07:43:24.893Z,88.15
2023-02-25T07:45:02.242Z,88.16
2023-02-25T07:46:05.988Z,88.19
2023-02-25T07:47:09.703Z,88.21
2023-02-25T07:48:45.021Z,88.12
2023-02-25T07:49:48.458Z,88.01
2023-02-25T07:50:53.711Z,88.30
2023-02-25T07:52:29.045Z,88.18
2023-02-25T07:53:32.383Z,88.20
2023-02-25T07:54:35.939Z,88.17
2023-02-25T07:56:11.148Z,87.73
2023-02-25T07:57:14.431Z,87.93
2023-02-25T07:58:18.076Z,87.87
2023-02-25T07:59:53.503Z,87.64
2023-02-25T08:00:18.460Z,87.62
2023-02-25T08:01:21.976Z,87.61
2023-02-25T08:02:25.601Z,87.53
2023-02-25T08:04:01.250Z,87.77
2023-02-25T08:05:05.041Z,87.65
2023-02-25T08:06:08.454Z,87.71
2023-02-25T08:07:44.012Z,87.87
2023-02-25T08:08:47.438Z,87.62
2023-02-25T08:09:50.753Z,87.54
2023-02-25T08:11:26.832Z,87.86
2023-02-25T08:12:30.378Z,87.85
2023-02-25T08:13:34.068Z,87.82
2023-02-25T08:15:09.700Z,87.91
2023-02-25T08:16:13.517Z,88.17
2023-02-25T08:17:17.346Z,88.36
2023-02-25T08:18:52.860Z,88.43
2023-02-25T08:19:56.447Z,88.51
2023-02-25T08:21:01.981Z,88.61
2023-02-25T08:22:38.973Z,88.29
2023-02-25T08:23:42.672Z,88.43
2023-02-25T08:24:45.811Z,88.46
2023-02-25T08:26:21.367Z,88.78
2023-02-25T08:27:24.835Z,88.72
2023-02-25T08:28:30.532Z,88.87
2023-02-25T08:30:08.409Z,88.91
2023-02-25T08:31:12.102Z,88.91
2023-02-25T08:32:17.348Z,88.91
2023-02-25T08:33:53.769Z,88.98
2023-02-25T08:34:57.266Z,88.99
2023-02-25T08:36:00.655Z,88.99
2023-02-25T08:37:36.208Z,89.36
2023-02-25T08:38:39.284Z,89.57
2023-02-25T08:39:42.701Z,89.10
2023-02-25T08:41:18.161Z,89.52
2023-02-25T08:42:21.841Z,89.23
2023-02-25T08:43:25.395Z,89.52
2023-02-25T08:45:01.253Z,89.83
2023-02-25T08:46:06.931Z,89.64
2023-02-25T08:47:13.760Z,89.55
2023-02-25T08:48:49.347Z,89.53
2023-02-25T08:49:52.799Z,89.51
2023-02-25T08:50:56.137Z,89.86
2023-02-25T08:52:31.846Z,89.64
2023-02-25T08:53:35.110Z,89.67
2023-02-25T08:54:38.614Z,89.95
2023-02-25T08:56:14.387Z,89.64
2023-02-25T08:57:17.891Z,89.79
2023-02-25T08:58:21.665Z,89.99
2023-02-25T08:59:57.175Z,90.09
2023-02-25T09:00:18.012Z,89.51
2023-02-25T09:01:22.060Z,89.34
2023-02-25T09:02:26.609Z,89.57
2023-02-25T09:04:01.925Z,89.49
2023-02-25T09:05:05.724Z,89.13
2023-02-25T09:06:12.496Z,89.08
2023-02-25T09:07:48.284Z,88.96
2023-02-25T09:08:51.496Z,88.71
2023-02-25T09:09:54.834Z,88.22
2023-02-25T09:11:41.994Z,88.10
2023-02-25T09:12:45.254Z,88.17
2023-02-25T09:13:48.734Z,88.17
2023-02-25T09:15:24.295Z,88.18
2023-02-25T09:16:27.896Z,88.20
2023-02-25T09:17:32.074Z,87.96
2023-02-25T09:19:07.680Z,87.71
2023-02-25T09:20:11.236Z,87.78
2023-02-25T09:21:14.370Z,87.71
2023-02-25T09:22:50.113Z,87.75
2023-02-25T09:23:55.042Z,87.80
2023-02-25T09:24:58.499Z,87.82
2023-02-25T09:26:34.044Z,87.60
2023-02-25T09:27:37.501Z,86.95
2023-02-25T09:28:40.976Z,87.10
2023-02-25T09:30:16.412Z,86.90
2023-02-25T09:31:20.012Z,87.01
2023-02-25T09:32:25.190Z,87.07
2023-02-25T09:34:01.943Z,87.55
2023-02-25T09:35:07.147Z,87.70
2023-02-25T09:36:10.317Z,88.10
2023-02-25T09:37:45.656Z,88.23
2023-02-25T09:38:49.038Z,88.19
2023-02-25T09:39:52.105Z,87.40
2023-02-25T09:41:28.249Z,86.84
2023-02-25T09:42:31.671Z,86.99
2023-02-25T09:43:35.091Z,87.13
2023-02-25T09:45:10.825Z,87.20
2023-02-25T09:46:14.504Z,85.51
2023-02-25T09:47:17.889Z,85.52
2023-02-25T09:48:54.067Z,85.72
2023-02-25T09:49:57.659Z,84.99
2023-02-25T09:51:00.919Z,84.97
2023-02-25T09:52:36.939Z,84.27
2023-02-25T09:53:40.513Z,84.18
2023-02-25T09:54:43.797Z,83.94
2023-02-25T09:56:19.267Z,83.51
2023-02-25T09:57:22.754Z,82.32
2023-02-25T09:58:26.275Z,82.41
2023-02-25T10:00:17.698Z,82.15
2023-02-25T10:01:20.930Z,82.24
2023-02-25T10:02:24.382Z,82.16
2023-02-25T10:04:01.640Z,81.53
2023-02-25T10:05:05.206Z,81.39
2023-02-25T10:06:08.707Z,80.55
2023-02-25T10:07:44.332Z,80.56
2023-02-25T10:08:47.714Z,81.32
2023-02-25T10:09:51.317Z,80.42
2023-02-25T10:11:27.378Z,80.36
2023-02-25T10:12:30.712Z,80.78
2023-02-25T10:13:33.963Z,78.67
2023-02-25T10:15:09.673Z,77.53
2023-02-25T10:16:13.406Z,76.84
2023-02-25T10:17:17.316Z,76.67
2023-02-25T10:18:53.059Z,77.55
2023-02-25T10:19:56.534Z,76.05
2023-02-25T10:21:00.012Z,77.73
2023-02-25T10:22:36.395Z,77.37
2023-02-25T10:23:39.437Z,77.68
2023-02-25T10:24:42.966Z,77.12
2023-02-25T10:26:18.667Z,76.32
2023-02-25T10:27:21.954Z,77.18
2023-02-25T10:28:25.556Z,77.48
2023-02-25T10:30:00.885Z,78.18
2023-02-25T10:31:04.551Z,78.15
2023-02-25T10:32:10.351Z,77.60
2023-02-25T10:33:46.633Z,77.53
2023-02-25T10:34:50.355Z,78.29
2023-02-25T10:35:53.795Z,77.93
2023-02-25T10:37:29.253Z,77.47
2023-02-25T10:38:32.585Z,76.16
2023-02-25T10:39:36.153Z,75.42
2023-02-25T10:41:11.690Z,76.80
2023-02-25T10:42:15.783Z,76.76
2023-02-25T10:43:19.253Z,76.12
2023-02-25T10:44:54.914Z,74.96
2023-02-25T10:46:01.671Z,74.05
2023-02-25T10:47:05.411Z,74.19
2023-02-25T10:48:40.977Z,73.54
2023-02-25T10:49:44.499Z,73.38
2023-02-25T10:50:52.848Z,71.01
2023-02-25T10:52:28.175Z,71.10
2023-02-25T10:53:31.440Z,68.18
2023-02-25T10:54:35.002Z,68.67
2023-02-25T10:56:10.330Z,67.30
2023-02-25T10:57:13.594Z,67.80
2023-02-25T10:58:17.159Z,66.51
2023-02-25T10:59:52.669Z,67.42
2023-02-25T11:00:18.478Z,67.42
2023-02-25T11:01:22.530Z,65.40
2023-02-25T11:02:26.530Z,65.59
2023-02-25T11:04:02.482Z,65.50
2023-02-25T11:05:05.905Z,64.51
2023-02-25T11:06:09.318Z,64.30
2023-02-25T11:07:47.488Z,64.29
2023-02-25T11:08:50.761Z,63.79
2023-02-25T11:09:54.127Z,61.03
2023-02-25T11:11:32.135Z,61.70
2023-02-25T11:12:35.720Z,61.83
2023-02-25T11:13:39.044Z,61.99
2023-02-25T11:15:14.427Z,60.83
2023-02-25T11:16:36.076Z,60.06
2023-02-25T11:17:39.860Z,58.22
2023-02-25T11:19:15.697Z,57.61
2023-02-25T11:20:19.224Z,55.52
2023-02-25T11:21:23.077Z,57.41
2023-02-25T11:22:58.606Z,57.02
2023-02-25T11:24:02.164Z,58.11
2023-02-25T11:25:05.409Z,58.27
2023-02-25T11:26:41.028Z,58.79
2023-02-25T11:27:45.235Z,59.74
2023-02-25T11:28:48.910Z,59.65
2023-02-25T11:30:24.545Z,60.06
2023-02-25T11:31:29.861Z,60.03
2023-02-25T11:32:35.721Z,59.88
2023-02-25T11:34:11.733Z,59.87
2023-02-25T11:36:18.380Z,59.33
2023-02-25T11:37:55.846Z,57.96
2023-02-25T11:38:59.227Z,58.98
2023-02-25T11:40:02.813Z,59.35
2023-02-25T11:41:38.298Z,59.12
2023-02-25T11:42:41.670Z,60.18
2023-02-25T11:43:44.917Z,61.19
2023-02-25T11:45:21.693Z,61.75
2023-02-25T11:46:25.573Z,59.89
2023-02-25T11:47:29.536Z,60.74
2023-02-25T11:49:05.177Z,61.11
2023-02-25T11:50:08.404Z,60.88
2023-02-25T11:51:11.586Z,59.55
2023-02-25T11:52:46.881Z,60.74
2023-02-25T11:53:50.054Z,60.18
2023-02-25T11:54:53.300Z,59.40
2023-02-25T11:56:29.344Z,58.47
2023-02-25T11:57:32.425Z,58.40
2023-02-25T11:58:35.676Z,58.07
2023-02-25T12:00:17.915Z,58.45
2023-02-25T12:01:21.281Z,59.92
2023-02-25T12:02:24.854Z,57.77
2023-02-25T12:04:01.283Z,58.27
2023-02-25T12:05:04.752Z,58.25
2023-02-25T12:06:08.242Z,58.51
2023-02-25T12:07:55.550Z,57.89
2023-02-25T12:09:12.079Z,58.34
2023-02-25T12:10:15.567Z,59.20
2023-02-25T12:11:51.067Z,59.07
2023-02-25T12:12:54.506Z,59.19
2023-02-25T12:13:58.136Z,59.54
2023-02-25T12:15:33.414Z,60.21
2023-02-25T12:16:36.984Z,61.56
2023-02-25T12:17:42.013Z,60.88
2023-02-25T12:19:17.194Z,58.54
2023-02-25T12:20:20.428Z,58.00
2023-02-25T12:21:23.974Z,58.31
2023-02-25T12:22:59.365Z,56.66
2023-02-25T12:24:02.567Z,56.21
2023-02-25T12:25:05.860Z,56.93
2023-02-25T12:26:40.757Z,55.61
2023-02-25T12:27:43.752Z,55.46
2023-02-25T12:28:47.752Z,55.26
2023-02-25T12:30:24.213Z,55.78
2023-02-25T12:31:28.398Z,54.54
2023-02-25T12:32:32.155Z,53.68
2023-02-25T12:34:07.267Z,53.61
2023-02-25T12:35:13.072Z,54.31
2023-02-25T12:36:16.324Z,55.12
2023-02-25T12:37:51.463Z,54.62
2023-02-25T12:38:54.669Z,54.13
2023-02-25T12:39:57.588Z,52.49
2023-02-25T12:41:32.483Z,52.87
2023-02-25T12:42:35.458Z,53.41
2023-02-25T12:43:38.591Z,53.25
2023-02-25T12:45:13.589Z,50.34
2023-02-25T12:46:17.183Z,49.32
2023-02-25T12:47:20.167Z,49.99
2023-02-25T12:48:55.762Z,50.86
2023-02-25T12:49:58.994Z,46.91
2023-02-25T12:51:02.359Z,47.65
2023-02-25T12:52:37.949Z,46.13
2023-02-25T12:53:41.186Z,45.31
2023-02-25T12:54:44.633Z,44.56
2023-02-25T12:56:19.940Z,43.08
2023-02-25T12:57:23.024Z,43.59
2023-02-25T12:58:26.247Z,44.35
2023-02-25T13:00:01.242Z,45.70
2023-02-25T13:00:17.648Z,43.62
2023-02-25T13:01:21.126Z,44.31
2023-02-25T13:02:24.751Z,46.03
2023-02-25T13:04:00.406Z,45.34
2023-02-25T13:05:03.886Z,44.94
2023-02-25T13:06:07.021Z,46.06
2023-02-25T13:07:42.352Z,45.50
2023-02-25T13:08:45.507Z,45.74
2023-02-25T13:09:48.706Z,45.83
2023-02-25T13:11:24.372Z,46.29
2023-02-25T13:12:59.323Z,44.14
2023-02-25T13:14:02.447Z,44.91
2023-02-25T13:15:37.483Z,44.65
2023-02-25T13:16:40.732Z,43.88
2023-02-25T13:17:44.184Z,44.82
2023-02-25T13:19:19.418Z,44.25
2023-02-25T13:20:22.585Z,44.69
2023-02-25T13:21:26.084Z,42.55
2023-02-25T13:23:01.633Z,42.27
2023-02-25T13:24:04.736Z,40.06
2023-02-25T13:25:08.175Z,41.42
2023-02-25T13:26:43.604Z,41.17
2023-02-25T13:27:46.686Z,41.59
2023-02-25T13:28:51.333Z,41.65
2023-02-25T13:30:26.871Z,40.98
2023-02-25T13:31:30.848Z,42.82
2023-02-25T13:32:35.354Z,44.89
2023-02-25T13:34:10.726Z,43.41
2023-02-25T13:35:15.375Z,42.63
2023-02-25T13:36:18.488Z,40.79
2023-02-25T13:37:53.557Z,42.40
2023-02-25T13:38:56.901Z,41.53
2023-02-25T13:40:00.008Z,44.10
2023-02-25T13:41:38.392Z,43.47
2023-02-25T13:42:41.895Z,42.62
2023-02-25T13:43:44.936Z,43.25
2023-02-25T13:45:20.364Z,42.40
2023-02-25T13:46:23.660Z,42.30
2023-02-25T13:47:29.469Z,41.90
2023-02-25T13:49:04.610Z,41.97
2023-02-25T13:50:07.834Z,41.65
2023-02-25T13:51:10.940Z,41.43
2023-02-25T13:52:46.565Z,43.49
2023-02-25T13:53:49.444Z,42.84
2023-02-25T13:54:52.497Z,42.19
2023-02-25T13:56:27.674Z,43.26
2023-02-25T13:57:30.935Z,42.63
2023-02-25T13:58:33.950Z,42.88
2023-02-25T14:00:18.299Z,43.10
2023-02-25T14:01:21.643Z,43.95
2023-02-25T14:02:25.690Z,43.20
2023-02-25T14:04:01.431Z,45.40
2023-02-25T14:05:04.701Z,44.79
2023-02-25T14:06:10.218Z,44.22
2023-02-25T14:07:45.407Z,45.01
2023-02-25T14:08:48.528Z,44.75
2023-02-25T14:09:51.802Z,45.10
2023-02-25T14:11:27.231Z,45.13
2023-02-25T14:12:31.756Z,45.80
2023-02-25T14:13:34.992Z,45.75
2023-02-25T14:15:10.356Z,45.61
2023-02-25T14:16:13.964Z,45.82
2023-02-25T14:17:17.111Z,45.94
2023-02-25T14:18:52.726Z,45.11
2023-02-25T14:19:55.859Z,44.29
2023-02-25T14:20:58.909Z,44.48
2023-02-25T14:22:36.010Z,44.30
2023-02-25T14:23:39.367Z,46.58
2023-02-25T14:24:42.546Z,46.43
2023-02-25T14:26:17.775Z,46.49
2023-02-25T14:27:20.868Z,46.85
2023-02-25T14:28:24.301Z,47.00
2023-02-25T14:29:59.814Z,47.50
2023-02-25T14:31:03.424Z,47.36
2023-02-25T14:32:08.280Z,48.13
2023-02-25T14:33:44.118Z,48.19
2023-02-25T14:34:47.436Z,48.30
2023-02-25T14:35:50.512Z,47.37
2023-02-25T14:37:25.990Z,47.76
2023-02-25T14:38:29.140Z,47.04
2023-02-25T14:39:32.264Z,46.00
2023-02-25T14:41:07.312Z,45.78
2023-02-25T14:42:10.775Z,45.80
2023-02-25T14:43:14.085Z,45.67
2023-02-25T14:44:49.360Z,45.91
2023-02-25T14:45:52.549Z,46.43
2023-02-25T14:46:56.058Z,46.94
2023-02-25T14:48:31.301Z,46.96
2023-02-25T14:49:34.606Z,45.93
2023-02-25T14:50:37.608Z,46.85
2023-02-25T14:52:13.356Z,46.63
2023-02-25T14:53:16.518Z,46.41
2023-02-25T14:54:19.642Z,46.88
2023-02-25T14:55:54.939Z,48.17
2023-02-25T14:56:57.990Z,48.56
2023-02-25T14:58:01.291Z,48.33
2023-02-25T14:59:36.397Z,49.30
2023-02-25T15:00:17.958Z,49.30
2023-02-25T15:01:21.583Z,49.35
2023-02-25T15:02:25.558Z,48.91
2023-02-25T15:04:01.101Z,49.01
2023-02-25T15:05:04.284Z,48.32
2023-02-25T15:06:08.864Z,46.88
2023-02-25T15:07:44.710Z,47.41
2023-02-25T15:08:48.015Z,47.59
2023-02-25T15:09:51.278Z,47.48
2023-02-25T15:11:28.675Z,48.70
2023-02-25T15:12:31.681Z,48.24
2023-02-25T15:13:34.597Z,48.76
2023-02-25T15:15:09.979Z,48.71
2023-02-25T15:16:13.437Z,49.29
2023-02-25T15:17:16.671Z,50.03
2023-02-25T15:18:51.320Z,50.79
2023-02-25T15:19:54.523Z,50.22
2023-02-25T15:20:58.037Z,51.05
2023-02-25T15:22:33.376Z,50.95
2023-02-25T15:23:36.397Z,50.60
2023-02-25T15:24:39.825Z,51.09
2023-02-25T15:26:15.102Z,50.50
2023-02-25T15:27:18.289Z,50.67
2023-02-25T15:28:21.437Z,50.85
2023-02-25T15:29:56.515Z,51.06
2023-02-25T15:30:59.728Z,50.23
2023-02-25T15:32:04.170Z,51.32
2023-02-25T15:33:39.981Z,51.72
2023-02-25T15:34:43.158Z,51.57
2023-02-25T15:35:46.578Z,51.34
2023-02-25T15:37:21.877Z,49.35
2023-02-25T15:38:25.140Z,49.93
2023-02-25T15:39:28.718Z,50.64
2023-02-25T15:41:04.474Z,50.33
2023-02-25T15:42:08.138Z,50.30
2023-02-25T15:43:11.256Z,51.16
2023-02-25T15:44:46.426Z,51.50
2023-02-25T15:45:51.850Z,51.57
2023-02-25T15:46:55.359Z,52.17
2023-02-25T15:48:30.744Z,51.69
2023-02-25T15:49:33.961Z,52.08
2023-02-25T15:50:37.177Z,51.74